Mill Creek, Pennsylvania
Current Conditions -  °F | °C
As of 7:53 PM on Tuesday 21 Oct 2014 (Local Time) from KAOO Reporting Station
Overcast Overcast  
Wind Chill: 51°   Ceiling: 2300
Heat Index: 51°   Visibility: 10mi
Dew Point: 44°   Wind: 6mph
Humidity: 77%   Direction: NA
Pressure: 29.92"   Gusts: NA
Location:  40.44°N, 77.93°W
Report Text: KAOO 212353Z AUTO VRB05KT 10SM OVC023 11/07 A2992 RMK AO2 SLP136 T01060067 10144 20106 53018
Loading
Personal Weather Stations






























Interactive Weather Map
Tropical Storm Tracking
New forecast layout! Learn more

10-Day Weather Forecast

Advertisements
Track Severe Weather on mobile